sensor_id;sensor_type;location;lat;lon;timestamp;pressure;altitude;pressure_sealevel;temperature;humidity
21980;BME280;11154;48.558;9.234;2023-05-21T00:01:23;97117.59;;;18.15;95.48
21980;BME280;11154;48.558;9.234;2023-05-21T00:03:25;97119.69;;;18.13;95.57
21980;BME280;11154;48.558;9.234;2023-05-21T00:05:28;97116.41;;;18.11;96.08
21980;BME280;11154;48.558;9.234;2023-05-21T00:07:30;97114.75;;;18.10;96.47
21980;BME280;11154;48.558;9.234;2023-05-21T00:09:32;97116.81;;;18.08;96.46
21980;BME280;11154;48.558;9.234;2023-05-21T00:11:34;97109.38;;;18.10;96.71
21980;BME280;11154;48.558;9.234;2023-05-21T00:13:37;97108.75;;;18.08;96.51
21980;BME280;11154;48.558;9.234;2023-05-21T00:15:39;97115.78;;;18.09;96.31
21980;BME280;11154;48.558;9.234;2023-05-21T00:17:40;97114.75;;;18.10;96.99
21980;BME280;11154;48.558;9.234;2023-05-21T00:19:42;97108.97;;;18.07;96.73
21980;BME280;11154;48.558;9.234;2023-05-21T00:21:44;97107.72;;;18.09;96.37
21980;BME280;11154;48.558;9.234;2023-05-21T00:23:46;97100.06;;;18.07;96.82
21980;BME280;11154;48.558;9.234;2023-05-21T00:25:48;97102.34;;;18.03;96.91
21980;BME280;11154;48.558;9.234;2023-05-21T00:27:49;97094.97;;;17.99;97.58
21980;BME280;11154;48.558;9.234;2023-05-21T00:29:52;97090.00;;;17.96;97.79
21980;BME280;11154;48.558;9.234;2023-05-21T00:31:54;97099.34;;;17.93;98.49
21980;BME280;11154;48.558;9.234;2023-05-21T00:33:56;97088.78;;;17.92;98.75
21980;BME280;11154;48.558;9.234;2023-05-21T00:35:58;97080.53;;;17.87;99.60
21980;BME280;11154;48.558;9.234;2023-05-21T00:37:59;97091.09;;;17.88;99.54
21980;BME280;11154;48.558;9.234;2023-05-21T00:40:02;97086.09;;;17.92;98.93
21980;BME280;11154;48.558;9.234;2023-05-21T00:42:06;97088.78;;;17.92;98.90
21980;BME280;11154;48.558;9.234;2023-05-21T00:44:08;97085.66;;;17.95;98.64
21980;BME280;11154;48.558;9.234;2023-05-21T00:46:17;97085.44;;;17.96;98.68
21980;BME280;11154;48.558;9.234;2023-05-21T00:48:20;97077.34;;;17.96;98.80
21980;BME280;11154;48.558;9.234;2023-05-21T00:50:21;97079.84;;;17.98;98.55
21980;BME280;11154;48.558;9.234;2023-05-21T00:52:23;97080.44;;;18.00;98.63
21980;BME280;11154;48.558;9.234;2023-05-21T00:54:26;97076.94;;;17.99;98.08
21980;BME280;11154;48.558;9.234;2023-05-21T00:56:28;97074.25;;;17.99;98.97
21980;BME280;11154;48.558;9.234;2023-05-21T00:58:30;97079.25;;;17.96;100.00
21980;BME280;11154;48.558;9.234;2023-05-21T01:00:33;97073.69;;;17.91;99.67
21980;BME280;11154;48.558;9.234;2023-05-21T01:02:37;97082.81;;;17.90;99.40
21980;BME280;11154;48.558;9.234;2023-05-21T01:04:38;97081.38;;;17.87;99.09
21980;BME280;11154;48.558;9.234;2023-05-21T01:06:40;97083.91;;;17.82;98.94
21980;BME280;11154;48.558;9.234;2023-05-21T01:08:42;97084.75;;;17.76;98.99
21980;BME280;11154;48.558;9.234;2023-05-21T01:10:44;97076.72;;;17.70;99.56
21980;BME280;11154;48.558;9.234;2023-05-21T01:12:46;97073.41;;;17.68;100.00
21980;BME280;11154;48.558;9.234;2023-05-21T01:14:49;97073.03;;;17.64;99.78
21980;BME280;11154;48.558;9.234;2023-05-21T01:16:51;97071.16;;;17.65;100.00
21980;BME280;11154;48.558;9.234;2023-05-21T01:18:55;97074.91;;;17.64;99.55
21980;BME280;11154;48.558;9.234;2023-05-21T01:20:57;97077.81;;;17.62;99.84
21980;BME280;11154;48.558;9.234;2023-05-21T01:23:01;97069.56;;;17.57;100.00
21980;BME280;11154;48.558;9.234;2023-05-21T01:25:04;97072.03;;;17.59;100.00
21980;BME280;11154;48.558;9.234;2023-05-21T01:27:06;97069.34;;;17.59;99.06
21980;BME280;11154;48.558;9.234;2023-05-21T01:29:09;97064.19;;;17.57;99.65
21980;BME280;11154;48.558;9.234;2023-05-21T01:31:22;97075.38;;;17.54;100.00
21980;BME280;11154;48.558;9.234;2023-05-21T01:33:32;97073.53;;;17.48;100.00
21980;BME280;11154;48.558;9.234;2023-05-21T01:35:38;97072.91;;;17.46;100.00
21980;BME280;11154;48.558;9.234;2023-05-21T01:37:45;97073.16;;;17.45;100.00
21980;BME280;11154;48.558;9.234;2023-05-21T01:39:51;97071.31;;;17.39;100.00
21980;BME280;11154;48.558;9.234;2023-05-21T01:41:56;97070.09;;;17.35;100.00
21980;BME280;11154;48.558;9.234;2023-05-21T01:43:59;97076.50;;;17.34;100.00
21980;BME280;11154;48.558;9.234;2023-05-21T01:46:01;97069.25;;;17.35;100.00
21980;BME280;11154;48.558;9.234;2023-05-21T01:48:05;97062.03;;;17.35;100.00
21980;BME280;11154;48.558;9.234;2023-05-21T01:50:08;97063.66;;;17.36;100.00
21980;BME280;11154;48.558;9.234;2023-05-21T01:52:10;97064.28;;;17.38;100.00
21980;BME280;11154;48.558;9.234;2023-05-21T01:54:12;97063.47;;;17.38;100.00
21980;BME280;11154;48.558;9.234;2023-05-21T01:56:15;97068.00;;;17.37;100.00
21980;BME280;11154;48.558;9.234;2023-05-21T01:58:16;97059.53;;;17.34;100.00
21980;BME280;11154;48.558;9.234;2023-05-21T02:00:21;97060.16;;;17.36;100.00
21980;BME280;11154;48.558;9.234;2023-05-21T02:02:23;97058.91;;;17.38;100.00
21980;BME280;11154;48.558;9.234;2023-05-21T02:04:25;97064.69;;;17.41;100.00
21980;BME280;11154;48.558;9.234;2023-05-21T02:06:26;97066.56;;;17.41;100.00
21980;BME280;11154;48.558;9.234;2023-05-21T02:08:28;97061.38;;;17.39;100.00
21980;BME280;11154;48.558;9.234;2023-05-21T02:10:30;97069.88;;;17.37;100.00
21980;BME280;11154;48.558;9.234;2023-05-21T02:12:33;97068.00;;;17.37;100.00
21980;BME280;11154;48.558;9.234;2023-05-21T02:14:35;97068.00;;;17.37;100.00
21980;BME280;11154;48.558;9.234;2023-05-21T02:16:37;97074.22;;;17.38;100.00
21980;BME280;11154;48.558;9.234;2023-05-21T02:18:39;97067.41;;;17.35;100.00
21980;BME280;11154;48.558;9.234;2023-05-21T02:20:42;97068.63;;;17.33;100.00
21980;BME280;11154;48.558;9.234;2023-05-21T02:22:45;97070.94;;;17.29;100.00
21980;BME280;11154;48.558;9.234;2023-05-21T02:24:47;97062.47;;;17.26;100.00
21980;BME280;11154;48.558;9.234;2023-05-21T02:26:49;97064.31;;;17.25;100.00
21980;BME280;11154;48.558;9.234;2023-05-21T02:28:53;97063.69;;;17.23;100.00
21980;BME280;11154;48.558;9.234;2023-05-21T02:30:54;97064.53;;;17.24;100.00
21980;BME280;11154;48.558;9.234;2023-05-21T02:32:56;97053.16;;;17.22;100.00
21980;BME280;11154;48.558;9.234;2023-05-21T02:35:00;97053.16;;;17.22;100.00
21980;BME280;11154;48.558;9.234;2023-05-21T02:37:03;97050.25;;;17.23;100.00
21980;BME280;11154;48.558;9.234;2023-05-21T02:39:06;97056.25;;;17.25;100.00
21980;BME280;11154;48.558;9.234;2023-05-21T02:41:07;97053.16;;;17.22;100.00
21980;BME280;11154;48.558;9.234;2023-05-21T02:43:09;97043.66;;;17.19;100.00
21980;BME280;11154;48.558;9.234;2023-05-21T02:45:12;97047.16;;;17.20;100.00
21980;BME280;11154;48.558;9.234;2023-05-21T02:47:14;97043.28;;;17.16;100.00
21980;BME280;11154;48.558;9.234;2023-05-21T02:49:15;97048.88;;;17.14;100.00
21980;BME280;11154;48.558;9.234;2023-05-21T02:51:17;97037.94;;;17.09;100.00
21980;BME280;11154;48.558;9.234;2023-05-21T02:53:18;97042.91;;;17.06;100.00
21980;BME280;11154;48.558;9.234;2023-05-21T02:55:20;97052.22;;;17.03;100.00
21980;BME280;11154;48.558;9.234;2023-05-21T02:57:22;97047.03;;;17.02;100.00
21980;BME280;11154;48.558;9.234;2023-05-21T02:59:24;97051.22;;;16.98;100.00
21980;BME280;11154;48.558;9.234;2023-05-21T03:01:27;97045.84;;;16.98;100.00
21980;BME280;11154;48.558;9.234;2023-05-21T03:03:29;97047.69;;;16.97;100.00
21980;BME280;11154;48.558;9.234;2023-05-21T03:05:31;97045.00;;;16.97;100.00
21980;BME280;11154;48.558;9.234;2023-05-21T03:07:33;97047.09;;;16.95;100.00
21980;BME280;11154;48.558;9.234;2023-05-21T03:09:34;97051.63;;;16.95;100.00
21980;BME280;11154;48.558;9.234;2023-05-21T03:11:36;97047.69;;;16.97;100.00
21980;BME280;11154;48.558;9.234;2023-05-21T03:13:38;97046.66;;;16.98;100.00
21980;BME280;11154;48.558;9.234;2023-05-21T03:15:39;97052.03;;;16.98;100.00
21980;BME280;11154;48.558;9.234;2023-05-21T03:17:44;97052.47;;;16.95;100.00
21980;BME280;11154;48.558;9.234;2023-05-21T03:19:47;97058.06;;;16.94;100.00
21980;BME280;11154;48.558;9.234;2023-05-21T03:21:49;97044.81;;;16.92;100.00
21980;BME280;11154;48.558;9.234;2023-05-21T03:23:51;97051.66;;;16.88;100.00
21980;BME280;11154;48.558;9.234;2023-05-21T03:25:57;97042.75;;;16.88;100.00
21980;BME280;11154;48.558;9.234;2023-05-21T03:28:00;97041.94;;;16.87;100.00
21980;BME280;11154;48.558;9.234;2023-05-21T03:30:02;97038.44;;;16.87;100.00
21980;BME280;11154;48.558;9.234;2023-05-21T03:32:04;97038.03;;;16.83;100.00
21980;BME280;11154;48.558;9.234;2023-05-21T03:34:07;97042.38;;;16.84;100.00
21980;BME280;11154;48.558;9.234;2023-05-21T03:36:08;97034.50;;;16.83;100.00
21980;BME280;11154;48.558;9.234;2023-05-21T03:38:10;97031.44;;;16.79;100.00
21980;BME280;11154;48.558;9.234;2023-05-21T03:40:12;97031.81;;;16.83;100.00
21980;BME280;11154;48.558;9.234;2023-05-21T03:42:14;97036.38;;;16.82;100.00
21980;BME280;11154;48.558;9.234;2023-05-21T03:44:16;97031.25;;;16.81;100.00
21980;BME280;11154;48.558;9.234;2023-05-21T03:46:17;97035.53;;;16.82;100.00
21980;BME280;11154;48.558;9.234;2023-05-21T03:48:19;97039.06;;;16.82;100.00
21980;BME280;11154;48.558;9.234;2023-05-21T03:50:22;97039.47;;;16.79;100.00
21980;BME280;11154;48.558;9.234;2023-05-21T03:52:23;97038.25;;;16.75;100.00
21980;BME280;11154;48.558;9.234;2023-05-21T03:54:25;97036.84;;;16.73;100.00
21980;BME280;11154;48.558;9.234;2023-05-21T03:56:27;97025.25;;;16.72;100.00
21980;BME280;11154;48.558;9.234;2023-05-21T03:58:29;97035.41;;;16.70;100.00
21980;BME280;11154;48.558;9.234;2023-05-21T04:00:31;97038.72;;;16.66;100.00
21980;BME280;11154;48.558;9.234;2023-05-21T04:02:33;97043.22;;;16.65;100.00
21980;BME280;11154;48.558;9.234;2023-05-21T04:04:35;97045.53;;;16.62;100.00
21980;BME280;11154;48.558;9.234;2023-05-21T04:06:38;97049.44;;;16.60;100.00
21980;BME280;11154;48.558;9.234;2023-05-21T04:08:41;97045.94;;;16.59;100.00
21980;BME280;11154;48.558;9.234;2023-05-21T04:10:43;97054.41;;;16.63;100.00
21980;BME280;11154;48.558;9.234;2023-05-21T04:12:45;97053.16;;;16.65;100.00
21980;BME280;11154;48.558;9.234;2023-05-21T04:14:48;97056.47;;;16.67;100.00
21980;BME280;11154;48.558;9.234;2023-05-21T04:16:50;97057.50;;;16.66;100.00
21980;BME280;11154;48.558;9.234;2023-05-21T04:18:52;97059.16;;;16.61;100.00
21980;BME280;11154;48.558;9.234;2023-05-21T04:20:55;97066.22;;;16.55;100.00
21980;BME280;11154;48.558;9.234;2023-05-21T04:22:59;97075.28;;;16.54;100.00
21980;BME280;11154;48.558;9.234;2023-05-21T04:25:02;97075.06;;;16.56;100.00
21980;BME280;11154;48.558;9.234;2023-05-21T04:27:04;97081.66;;;16.60;100.00
21980;BME280;11154;48.558;9.234;2023-05-21T04:29:06;97080.84;;;16.59;100.00
21980;BME280;11154;48.558;9.234;2023-05-21T04:31:09;97077.34;;;16.59;100.00
21980;BME280;11154;48.558;9.234;2023-05-21T04:33:12;97080.63;;;16.61;100.00
21980;BME280;11154;48.558;9.234;2023-05-21T04:35:17;97087.25;;;16.64;100.00
21980;BME280;11154;48.558;9.234;2023-05-21T04:37:19;97088.47;;;16.68;100.00
21980;BME280;11154;48.558;9.234;2023-05-21T04:39:25;97088.88;;;16.72;100.00
21980;BME280;11154;48.558;9.234;2023-05-21T04:41:27;97090.75;;;16.71;100.00
21980;BME280;11154;48.558;9.234;2023-05-21T04:43:29;97090.53;;;16.73;100.00
21980;BME280;11154;48.558;9.234;2023-05-21T04:45:31;97096.50;;;16.75;100.00
21980;BME280;11154;48.558;9.234;2023-05-21T04:47:32;97102.50;;;16.77;100.00
21980;BME280;11154;48.558;9.234;2023-05-21T04:49:35;97099.81;;;16.77;100.00
21980;BME280;11154;48.558;9.234;2023-05-21T04:51:36;97094.22;;;16.78;100.00
21980;BME280;11154;48.558;9.234;2023-05-21T04:53:39;97098.16;;;16.76;100.00
21980;BME280;11154;48.558;9.234;2023-05-21T04:55:43;97092.59;;;16.77;100.00
21980;BME280;11154;48.558;9.234;2023-05-21T04:57:46;97104.56;;;16.81;100.00
21980;BME280;11154;48.558;9.234;2023-05-21T04:59:47;97098.78;;;16.84;100.00
21980;BME280;11154;48.558;9.234;2023-05-21T05:01:49;97095.66;;;16.87;100.00
21980;BME280;11154;48.558;9.234;2023-05-21T05:03:51;97103.72;;;16.87;100.00
21980;BME280;11154;48.558;9.234;2023-05-21T05:05:52;97100.00;;;16.88;100.00
21980;BME280;11154;48.558;9.234;2023-05-21T05:07:54;97102.47;;;16.90;100.00
21980;BME280;11154;48.558;9.234;2023-05-21T05:09:57;97102.06;;;16.86;100.00
21980;BME280;11154;48.558;9.234;2023-05-21T05:12:00;97102.50;;;16.83;100.00
21980;BME280;11154;48.558;9.234;2023-05-21T05:14:02;97093.81;;;16.81;100.00
21980;BME280;11154;48.558;9.234;2023-05-21T05:16:04;97102.69;;;16.82;100.00
21980;BME280;11154;48.558;9.234;2023-05-21T05:18:06;97099.81;;;16.83;100.00
21980;BME280;11154;48.558;9.234;2023-05-21T05:20:10;97095.88;;;16.79;100.00
21980;BME280;11154;48.558;9.234;2023-05-21T05:22:11;97100.84;;;16.76;100.00
21980;BME280;11154;48.558;9.234;2023-05-21T05:24:13;97102.09;;;16.73;100.00
21980;BME280;11154;48.558;9.234;2023-05-21T05:26:15;97099.41;;;16.73;100.00
21980;BME280;11154;48.558;9.234;2023-05-21T05:28:18;97094.03;;;16.73;100.00
21980;BME280;11154;48.558;9.234;2023-05-21T05:30:20;97096.13;;;16.71;100.00
21980;BME280;11154;48.558;9.234;2023-05-21T05:32:22;97094.03;;;16.73;100.00
21980;BME280;11154;48.558;9.234;2023-05-21T05:34:24;97094.44;;;16.83;100.00
21980;BME280;11154;48.558;9.234;2023-05-21T05:36:25;97093.78;;;16.88;100.00
21980;BME280;11154;48.558;9.234;2023-05-21T05:38:27;97094.41;;;16.90;100.00
21980;BME280;11154;48.558;9.234;2023-05-21T05:40:29;97088.81;;;16.91;100.00
21980;BME280;11154;48.558;9.234;2023-05-21T05:42:30;97095.44;;;16.95;100.00
21980;BME280;11154;48.558;9.234;2023-05-21T05:44:33;97094.00;;;16.93;100.00
21980;BME280;11154;48.558;9.234;2023-05-21T05:46:35;97094.59;;;16.95;100.00
21980;BME280;11154;48.558;9.234;2023-05-21T05:48:37;97097.28;;;16.95;100.00
21980;BME280;11154;48.558;9.234;2023-05-21T05:50:39;97104.53;;;16.94;100.00
21980;BME280;11154;48.558;9.234;2023-05-21T05:52:40;97098.72;;;16.97;100.00
21980;BME280;11154;48.558;9.234;2023-05-21T05:54:42;97100.38;;;16.98;100.00
21980;BME280;11154;48.558;9.234;2023-05-21T05:56:44;97100.38;;;16.98;100.00
21980;BME280;11154;48.558;9.234;2023-05-21T05:58:46;97100.38;;;16.98;100.00
21980;BME280;11154;48.558;9.234;2023-05-21T06:00:49;97105.34;;;17.01;100.00
21980;BME280;11154;48.558;9.234;2023-05-21T06:02:50;97104.91;;;17.04;100.00
21980;BME280;11154;48.558;9.234;2023-05-21T06:04:52;97111.94;;;17.05;100.00
21980;BME280;11154;48.558;9.234;2023-05-21T06:06:53;97111.06;;;17.11;100.00
21980;BME280;11154;48.558;9.234;2023-05-21T06:08:56;97102.38;;;17.16;100.00
21980;BME280;11154;48.558;9.234;2023-05-21T06:10:58;97102.38;;;17.16;100.00
21980;BME280;11154;48.558;9.234;2023-05-21T06:12:59;97104.25;;;17.15;100.00
21980;BME280;11154;48.558;9.234;2023-05-21T06:15:01;97098.66;;;17.17;100.00
21980;BME280;11154;48.558;9.234;2023-05-21T06:17:04;97101.97;;;17.19;100.00
21980;BME280;11154;48.558;9.234;2023-05-21T06:19:06;97097.19;;;17.21;100.00
21980;BME280;11154;48.558;9.234;2023-05-21T06:21:08;97102.38;;;17.22;100.00
21980;BME280;11154;48.558;9.234;2023-05-21T06:23:09;97106.69;;;17.23;100.00
21980;BME280;11154;48.558;9.234;2023-05-21T06:25:11;97111.47;;;17.28;100.00
21980;BME280;11154;48.558;9.234;2023-05-21T06:27:13;97101.56;;;17.28;100.00
21980;BME280;11154;48.558;9.234;2023-05-21T06:29:15;97103.41;;;17.34;100.00
21980;BME280;11154;48.558;9.234;2023-05-21T06:31:17;97100.72;;;17.34;100.00
21980;BME280;11154;48.558;9.234;2023-05-21T06:33:22;97105.63;;;17.37;100.00
21980;BME280;11154;48.558;9.234;2023-05-21T06:35:24;97109.75;;;17.46;100.00
21980;BME280;11154;48.558;9.234;2023-05-21T06:37:26;97103.13;;;17.48;100.00
21980;BME280;11154;48.558;9.234;2023-05-21T06:39:27;97097.91;;;17.53;100.00
21980;BME280;11154;48.558;9.234;2023-05-21T06:41:29;97101.44;;;17.54;100.00
21980;BME280;11154;48.558;9.234;2023-05-21T06:43:31;97097.66;;;17.61;100.00
21980;BME280;11154;48.558;9.234;2023-05-21T06:45:32;97100.34;;;17.61;100.00
21980;BME280;11154;48.558;9.234;2023-05-21T06:47:34;97100.50;;;17.73;100.00
21980;BME280;11154;48.558;9.234;2023-05-21T06:49:37;97099.25;;;17.75;100.00
21980;BME280;11154;48.558;9.234;2023-05-21T06:51:38;97093.22;;;17.80;100.00
21980;BME280;11154;48.558;9.234;2023-05-21T06:53:40;97096.28;;;17.83;100.00
21980;BME280;11154;48.558;9.234;2023-05-21T06:55:42;97097.28;;;17.89;100.00
21980;BME280;11154;48.558;9.234;2023-05-21T06:57:44;97094.19;;;17.92;100.00
21980;BME280;11154;48.558;9.234;2023-05-21T06:59:46;97102.81;;;18.00;100.00
21980;BME280;11154;48.558;9.234;2023-05-21T07:01:47;97106.28;;;18.07;100.00
21980;BME280;11154;48.558;9.234;2023-05-21T07:03:50;97108.13;;;18.07;100.00
21980;BME280;11154;48.558;9.234;2023-05-21T07:05:53;97102.16;;;18.05;100.00
21980;BME280;11154;48.558;9.234;2023-05-21T07:07:55;97097.38;;;18.07;100.00
21980;BME280;11154;48.558;9.234;2023-05-21T07:09:56;97106.00;;;18.15;100.00
21980;BME280;11154;48.558;9.234;2023-05-21T07:11:58;97106.38;;;18.18;100.00
21980;BME280;11154;48.558;9.234;2023-05-21T07:14:00;97108.50;;;18.16;100.00
21980;BME280;11154;48.558;9.234;2023-05-21T07:16:03;97106.59;;;18.17;100.00
21980;BME280;11154;48.558;9.234;2023-05-21T07:18:05;97107.22;;;18.19;100.00
21980;BME280;11154;48.558;9.234;2023-05-21T07:20:07;97107.56;;;18.29;100.00
21980;BME280;11154;48.558;9.234;2023-05-21T07:22:12;97113.81;;;18.29;100.00
21980;BME280;11154;48.558;9.234;2023-05-21T07:24:14;97105.13;;;18.27;100.00
21980;BME280;11154;48.558;9.234;2023-05-21T07:26:15;97104.06;;;18.28;100.00
21980;BME280;11154;48.558;9.234;2023-05-21T07:28:17;97108.13;;;18.37;100.00
21980;BME280;11154;48.558;9.234;2023-05-21T07:30:19;97105.44;;;18.37;100.00
21980;BME280;11154;48.558;9.234;2023-05-21T07:32:21;97104.34;;;18.45;100.00
21980;BME280;11154;48.558;9.234;2023-05-21T07:34:24;97090.44;;;18.48;100.00
21980;BME280;11154;48.558;9.234;2023-05-21T07:36:26;97094.88;;;18.60;100.00
21980;BME280;11154;48.558;9.234;2023-05-21T07:38:30;97099.38;;;18.66;100.00
21980;BME280;11154;48.558;9.234;2023-05-21T07:40:32;97092.06;;;18.73;100.00
21980;BME280;11154;48.558;9.234;2023-05-21T07:42:34;97092.69;;;18.93;100.00
21980;BME280;11154;48.558;9.234;2023-05-21T07:44:35;97092.09;;;18.91;100.00
21980;BME280;11154;48.558;9.234;2023-05-21T07:46:37;97100.41;;;18.89;99.85
21980;BME280;11154;48.558;9.234;2023-05-21T07:48:39;97090.44;;;19.08;100.00
21980;BME280;11154;48.558;9.234;2023-05-21T07:50:41;97096.75;;;19.20;99.99
21980;BME280;11154;48.558;9.234;2023-05-21T07:52:42;97092.28;;;19.32;100.00
21980;BME280;11154;48.558;9.234;2023-05-21T07:54:45;97094.88;;;19.38;99.98
21980;BME280;11154;48.558;9.234;2023-05-21T07:56:47;97087.69;;;19.32;97.17
21980;BME280;11154;48.558;9.234;2023-05-21T07:58:49;97083.97;;;19.33;96.76
21980;BME280;11154;48.558;9.234;2023-05-21T08:00:51;97094.75;;;19.33;96.17
21980;BME280;11154;48.558;9.234;2023-05-21T08:02:53;97090.09;;;19.40;96.10
21980;BME280;11154;48.558;9.234;2023-05-21T08:04:54;97092.50;;;19.48;95.88
21980;BME280;11154;48.558;9.234;2023-05-21T08:06:56;97095.69;;;19.57;96.81
21980;BME280;11154;48.558;9.234;2023-05-21T08:08:58;97090.88;;;19.58;94.71
21980;BME280;11154;48.558;9.234;2023-05-21T08:11:02;97091.47;;;19.60;93.86
21980;BME280;11154;48.558;9.234;2023-05-21T08:13:03;97090.44;;;19.61;93.43
21980;BME280;11154;48.558;9.234;2023-05-21T08:15:06;97094.09;;;19.67;94.31
21980;BME280;11154;48.558;9.234;2023-05-21T08:17:08;97094.47;;;19.70;93.83
21980;BME280;11154;48.558;9.234;2023-05-21T08:19:09;97095.88;;;19.73;92.66
21980;BME280;11154;48.558;9.234;2023-05-21T08:21:11;97088.22;;;19.70;90.49
21980;BME280;11154;48.558;9.234;2023-05-21T08:23:13;97089.88;;;19.71;90.07
21980;BME280;11154;48.558;9.234;2023-05-21T08:25:15;97088.72;;;19.78;90.21
21980;BME280;11154;48.558;9.234;2023-05-21T08:27:18;97086.16;;;19.83;89.72
21980;BME280;11154;48.558;9.234;2023-05-21T08:29:20;97090.06;;;19.87;89.53
21980;BME280;11154;48.558;9.234;2023-05-21T08:31:22;97086.09;;;19.90;90.47
21980;BME280;11154;48.558;9.234;2023-05-21T08:33:23;97088.38;;;20.04;94.37
21980;BME280;11154;48.558;9.234;2023-05-21T08:35:25;97077.72;;;20.09;92.12
21980;BME280;11154;48.558;9.234;2023-05-21T08:37:26;97078.91;;;20.25;92.63
21980;BME280;11154;48.558;9.234;2023-05-21T08:39:28;97083.06;;;20.27;91.08
21980;BME280;11154;48.558;9.234;2023-05-21T08:41:32;97086.31;;;20.29;90.13
21980;BME280;11154;48.558;9.234;2023-05-21T08:43:37;97089.38;;;20.32;89.21
21980;BME280;11154;48.558;9.234;2023-05-21T08:45:41;97081.19;;;20.39;90.70
21980;BME280;11154;48.558;9.234;2023-05-21T08:47:44;97084.34;;;20.36;88.45
21980;BME280;11154;48.558;9.234;2023-05-21T08:49:47;97085.75;;;20.38;88.61
21980;BME280;11154;48.558;9.234;2023-05-21T08:51:50;97078.63;;;20.55;89.73
21980;BME280;11154;48.558;9.234;2023-05-21T08:53:52;97078.13;;;20.58;91.38
21980;BME280;11154;48.558;9.234;2023-05-21T08:55:55;97089.06;;;20.63;88.77
21980;BME280;11154;48.558;9.234;2023-05-21T08:57:57;97084.59;;;20.69;87.96
21980;BME280;11154;48.558;9.234;2023-05-21T09:00:01;97088.38;;;20.68;86.66
21980;BME280;11154;48.558;9.234;2023-05-21T09:02:04;97087.91;;;20.71;87.36
21980;BME280;11154;48.558;9.234;2023-05-21T09:04:08;97087.91;;;20.82;86.80
21980;BME280;11154;48.558;9.234;2023-05-21T09:06:12;97085.72;;;20.91;87.99
21980;BME280;11154;48.558;9.234;2023-05-21T09:08:17;97095.69;;;21.02;87.19
21980;BME280;11154;48.558;9.234;2023-05-21T09:10:22;97097.34;;;21.03;85.27
21980;BME280;11154;48.558;9.234;2023-05-21T09:12:26;97091.22;;;20.96;84.59
21980;BME280;11154;48.558;9.234;2023-05-21T09:14:28;97096.63;;;20.96;85.20
21980;BME280;11154;48.558;9.234;2023-05-21T09:16:32;97088.28;;;20.97;85.75
21980;BME280;11154;48.558;9.234;2023-05-21T09:18:34;97097.09;;;20.93;85.30
21980;BME280;11154;48.558;9.234;2023-05-21T09:20:35;97087.13;;;20.93;86.19
21980;BME280;11154;48.558;9.234;2023-05-21T09:22:39;97082.06;;;20.97;86.99
21980;BME280;11154;48.558;9.234;2023-05-21T09:24:42;97090.53;;;21.00;85.74
21980;BME280;11154;48.558;9.234;2023-05-21T09:26:44;97093.69;;;21.08;86.26
21980;BME280;11154;48.558;9.234;2023-05-21T09:28:46;97081.66;;;21.16;86.79
21980;BME280;11154;48.558;9.234;2023-05-21T09:30:49;97087.16;;;21.21;85.63
21980;BME280;11154;48.558;9.234;2023-05-21T09:32:56;97085.78;;;21.18;83.38
21980;BME280;11154;48.558;9.234;2023-05-21T09:35:05;97084.25;;;21.22;85.36
21980;BME280;11154;48.558;9.234;2023-05-21T09:37:08;97085.66;;;21.25;84.17
21980;BME280;11154;48.558;9.234;2023-05-21T09:39:10;97090.56;;;21.28;84.69
21980;BME280;11154;48.558;9.234;2023-05-21T09:41:15;97087.16;;;21.32;85.30
21980;BME280;11154;48.558;9.234;2023-05-21T09:43:17;97090.34;;;21.29;83.15
21980;BME280;11154;48.558;9.234;2023-05-21T09:45:23;97091.75;;;21.32;84.37
21980;BME280;11154;48.558;9.234;2023-05-21T09:47:24;97092.22;;;21.29;83.52
21980;BME280;11154;48.558;9.234;2023-05-21T09:49:27;97087.03;;;21.39;84.42
21980;BME280;11154;48.558;9.234;2023-05-21T09:51:30;97091.97;;;21.42;84.08
21980;BME280;11154;48.558;9.234;2023-05-21T09:53:32;97093.00;;;21.41;83.08
21980;BME280;11154;48.558;9.234;2023-05-21T09:55:35;97099.47;;;21.40;82.93
21980;BME280;11154;48.558;9.234;2023-05-21T09:57:39;97095.72;;;21.41;82.27
21980;BME280;11154;48.558;9.234;2023-05-21T09:59:41;97098.06;;;21.37;81.45
21980;BME280;11154;48.558;9.234;2023-05-21T10:01:43;97105.03;;;21.45;81.97
21980;BME280;11154;48.558;9.234;2023-05-21T10:03:48;97100.41;;;21.45;82.62
21980;BME280;11154;48.558;9.234;2023-05-21T10:05:54;97102.94;;;21.35;81.76
21980;BME280;11154;48.558;9.234;2023-05-21T10:07:59;97094.81;;;21.35;81.81
21980;BME280;11154;48.558;9.234;2023-05-21T10:10:03;97094.13;;;21.28;81.99
21980;BME280;11154;48.558;9.234;2023-05-21T10:12:05;97094.47;;;21.32;83.68
21980;BME280;11154;48.558;9.234;2023-05-21T10:14:10;97099.03;;;21.31;82.62
21980;BME280;11154;48.558;9.234;2023-05-21T10:16:15;97100.44;;;21.34;83.92
21980;BME280;11154;48.558;9.234;2023-05-21T10:18:18;97100.78;;;21.37;83.84
21980;BME280;11154;48.558;9.234;2023-05-21T10:20:21;97097.53;;;21.35;83.16
21980;BME280;11154;48.558;9.234;2023-05-21T10:22:24;97090.56;;;21.39;84.46
21980;BME280;11154;48.558;9.234;2023-05-21T10:24:26;97092.56;;;21.44;84.07
21980;BME280;11154;48.558;9.234;2023-05-21T10:26:29;97090.66;;;21.44;83.69
21980;BME280;11154;48.558;9.234;2023-05-21T10:28:32;97088.53;;;21.46;83.69
21980;BME280;11154;48.558;9.234;2023-05-21T10:30:35;97089.34;;;21.47;83.23
21980;BME280;11154;48.558;9.234;2023-05-21T10:32:39;97096.16;;;21.49;82.25
21980;BME280;11154;48.558;9.234;2023-05-21T10:34:42;97090.91;;;21.54;81.63
21980;BME280;11154;48.558;9.234;2023-05-21T10:36:45;97090.53;;;21.51;81.00
21980;BME280;11154;48.558;9.234;2023-05-21T10:38:50;97090.91;;;21.54;81.70
21980;BME280;11154;48.558;9.234;2023-05-21T10:40:52;97083.59;;;21.55;81.08
21980;BME280;11154;48.558;9.234;2023-05-21T10:43:09;97080.66;;;21.56;79.21
21980;BME280;11154;48.558;9.234;2023-05-21T10:45:18;97088.88;;;21.61;80.89